sensor_id;sensor_type;location;lat;lon;timestamp;P1;durP1;ratioP1;P2;durP2;ratioP2
12906;SDS011;6521;50.498;8.474;2023-07-20T00:00:46;8.63;;;2.60;;
12906;SDS011;6521;50.498;8.474;2023-07-20T00:03:17;10.13;;;2.80;;
12906;SDS011;6521;50.498;8.474;2023-07-20T00:05:49;4.18;;;2.22;;
12906;SDS011;6521;50.498;8.474;2023-07-20T00:08:20;8.43;;;2.63;;
12906;SDS011;6521;50.498;8.474;2023-07-20T00:10:50;6.65;;;2.75;;
12906;SDS011;6521;50.498;8.474;2023-07-20T00:13:21;4.72;;;2.47;;
12906;SDS011;6521;50.498;8.474;2023-07-20T00:15:52;4.63;;;2.60;;
12906;SDS011;6521;50.498;8.474;2023-07-20T00:18:23;4.78;;;2.33;;
12906;SDS011;6521;50.498;8.474;2023-07-20T00:20:53;5.53;;;2.38;;
12906;SDS011;6521;50.498;8.474;2023-07-20T00:23:24;5.25;;;2.63;;
12906;SDS011;6521;50.498;8.474;2023-07-20T00:25:55;9.73;;;2.85;;
12906;SDS011;6521;50.498;8.474;2023-07-20T00:28:26;6.53;;;2.63;;
12906;SDS011;6521;50.498;8.474;2023-07-20T00:30:58;7.03;;;2.78;;
12906;SDS011;6521;50.498;8.474;2023-07-20T00:33:30;9.75;;;2.42;;
12906;SDS011;6521;50.498;8.474;2023-07-20T00:36:00;8.13;;;2.67;;
12906;SDS011;6521;50.498;8.474;2023-07-20T00:38:31;4.28;;;2.42;;
12906;SDS011;6521;50.498;8.474;2023-07-20T00:41:02;6.68;;;2.72;;
12906;SDS011;6521;50.498;8.474;2023-07-20T00:43:33;9.02;;;3.13;;
12906;SDS011;6521;50.498;8.474;2023-07-20T00:46:03;6.65;;;2.28;;
12906;SDS011;6521;50.498;8.474;2023-07-20T00:48:35;4.50;;;2.45;;
12906;SDS011;6521;50.498;8.474;2023-07-20T00:51:07;6.00;;;2.60;;
12906;SDS011;6521;50.498;8.474;2023-07-20T00:53:37;9.20;;;3.22;;
12906;SDS011;6521;50.498;8.474;2023-07-20T00:56:08;5.32;;;2.88;;
12906;SDS011;6521;50.498;8.474;2023-07-20T00:58:39;10.32;;;2.92;;
12906;SDS011;6521;50.498;8.474;2023-07-20T01:01:10;6.93;;;2.83;;
12906;SDS011;6521;50.498;8.474;2023-07-20T01:03:41;4.78;;;2.47;;
12906;SDS011;6521;50.498;8.474;2023-07-20T01:06:19;9.85;;;3.60;;
12906;SDS011;6521;50.498;8.474;2023-07-20T01:09:17;6.00;;;3.22;;
12906;SDS011;6521;50.498;8.474;2023-07-20T01:11:58;6.75;;;3.08;;
12906;SDS011;6521;50.498;8.474;2023-07-20T01:14:36;5.18;;;3.40;;
12906;SDS011;6521;50.498;8.474;2023-07-20T01:17:07;4.65;;;3.00;;
12906;SDS011;6521;50.498;8.474;2023-07-20T01:19:38;5.05;;;3.03;;
12906;SDS011;6521;50.498;8.474;2023-07-20T01:28:02;5.78;;;3.67;;
12906;SDS011;6521;50.498;8.474;2023-07-20T01:33:54;10.90;;;3.53;;
12906;SDS011;6521;50.498;8.474;2023-07-20T01:36:28;5.20;;;3.30;;
12906;SDS011;6521;50.498;8.474;2023-07-20T01:39:03;7.07;;;3.50;;
12906;SDS011;6521;50.498;8.474;2023-07-20T01:41:34;5.85;;;3.30;;
12906;SDS011;6521;50.498;8.474;2023-07-20T01:44:05;6.28;;;3.65;;
12906;SDS011;6521;50.498;8.474;2023-07-20T01:46:36;8.30;;;3.47;;
12906;SDS011;6521;50.498;8.474;2023-07-20T01:49:08;5.82;;;3.22;;
12906;SDS011;6521;50.498;8.474;2023-07-20T01:51:38;6.20;;;3.10;;
12906;SDS011;6521;50.498;8.474;2023-07-20T01:54:09;5.70;;;3.20;;
12906;SDS011;6521;50.498;8.474;2023-07-20T01:56:40;4.53;;;3.20;;
12906;SDS011;6521;50.498;8.474;2023-07-20T01:59:11;7.15;;;2.90;;
12906;SDS011;6521;50.498;8.474;2023-07-20T02:01:42;7.63;;;3.00;;
12906;SDS011;6521;50.498;8.474;2023-07-20T02:04:13;8.00;;;3.67;;
12906;SDS011;6521;50.498;8.474;2023-07-20T02:06:45;6.47;;;3.40;;
12906;SDS011;6521;50.498;8.474;2023-07-20T02:09:15;5.30;;;2.95;;
12906;SDS011;6521;50.498;8.474;2023-07-20T02:11:46;6.45;;;3.33;;
12906;SDS011;6521;50.498;8.474;2023-07-20T02:14:18;5.88;;;3.28;;
12906;SDS011;6521;50.498;8.474;2023-07-20T02:16:48;5.32;;;3.40;;
12906;SDS011;6521;50.498;8.474;2023-07-20T02:19:31;6.22;;;3.10;;
12906;SDS011;6521;50.498;8.474;2023-07-20T02:22:02;8.85;;;3.65;;
12906;SDS011;6521;50.498;8.474;2023-07-20T02:24:33;6.47;;;3.20;;
12906;SDS011;6521;50.498;8.474;2023-07-20T02:27:04;7.18;;;3.25;;
12906;SDS011;6521;50.498;8.474;2023-07-20T02:29:35;5.03;;;3.08;;
12906;SDS011;6521;50.498;8.474;2023-07-20T02:32:06;6.40;;;3.50;;
12906;SDS011;6521;50.498;8.474;2023-07-20T02:34:37;4.63;;;3.20;;
12906;SDS011;6521;50.498;8.474;2023-07-20T02:37:08;6.53;;;3.72;;
12906;SDS011;6521;50.498;8.474;2023-07-20T02:39:39;5.55;;;2.80;;
12906;SDS011;6521;50.498;8.474;2023-07-20T02:42:10;5.55;;;2.88;;
12906;SDS011;6521;50.498;8.474;2023-07-20T02:44:41;5.40;;;3.17;;
12906;SDS011;6521;50.498;8.474;2023-07-20T02:47:12;8.80;;;3.13;;
12906;SDS011;6521;50.498;8.474;2023-07-20T02:49:43;5.32;;;3.30;;
12906;SDS011;6521;50.498;8.474;2023-07-20T02:52:14;6.65;;;3.20;;
12906;SDS011;6521;50.498;8.474;2023-07-20T02:54:45;5.97;;;3.40;;
12906;SDS011;6521;50.498;8.474;2023-07-20T02:57:15;6.93;;;3.38;;
12906;SDS011;6521;50.498;8.474;2023-07-20T02:59:46;5.88;;;3.42;;
12906;SDS011;6521;50.498;8.474;2023-07-20T03:02:17;7.68;;;3.70;;
12906;SDS011;6521;50.498;8.474;2023-07-20T03:04:48;6.57;;;3.90;;
12906;SDS011;6521;50.498;8.474;2023-07-20T03:07:19;7.35;;;4.22;;
12906;SDS011;6521;50.498;8.474;2023-07-20T03:09:49;7.78;;;4.32;;
12906;SDS011;6521;50.498;8.474;2023-07-20T03:12:21;8.35;;;4.25;;
12906;SDS011;6521;50.498;8.474;2023-07-20T03:14:52;7.70;;;4.28;;
12906;SDS011;6521;50.498;8.474;2023-07-20T03:17:24;8.80;;;3.97;;
12906;SDS011;6521;50.498;8.474;2023-07-20T03:19:55;7.22;;;4.35;;
12906;SDS011;6521;50.498;8.474;2023-07-20T03:22:27;7.25;;;4.03;;
12906;SDS011;6521;50.498;8.474;2023-07-20T03:24:57;6.70;;;4.45;;
12906;SDS011;6521;50.498;8.474;2023-07-20T03:27:28;7.70;;;4.05;;
12906;SDS011;6521;50.498;8.474;2023-07-20T03:29:59;5.25;;;4.00;;
12906;SDS011;6521;50.498;8.474;2023-07-20T03:32:31;5.85;;;4.30;;
12906;SDS011;6521;50.498;8.474;2023-07-20T03:35:01;6.72;;;4.18;;
12906;SDS011;6521;50.498;8.474;2023-07-20T03:37:32;6.57;;;3.78;;
12906;SDS011;6521;50.498;8.474;2023-07-20T03:40:05;9.98;;;4.60;;
12906;SDS011;6521;50.498;8.474;2023-07-20T03:42:37;7.18;;;3.92;;
12906;SDS011;6521;50.498;8.474;2023-07-20T03:45:09;5.28;;;3.95;;
12906;SDS011;6521;50.498;8.474;2023-07-20T03:47:40;8.20;;;4.00;;
12906;SDS011;6521;50.498;8.474;2023-07-20T03:50:10;6.88;;;4.38;;
12906;SDS011;6521;50.498;8.474;2023-07-20T03:52:41;5.90;;;4.35;;
12906;SDS011;6521;50.498;8.474;2023-07-20T03:55:12;7.70;;;4.32;;
12906;SDS011;6521;50.498;8.474;2023-07-20T03:57:42;8.60;;;4.53;;
12906;SDS011;6521;50.498;8.474;2023-07-20T04:00:13;7.38;;;4.20;;
12906;SDS011;6521;50.498;8.474;2023-07-20T04:02:45;6.97;;;4.22;;
12906;SDS011;6521;50.498;8.474;2023-07-20T04:05:16;6.75;;;4.75;;
12906;SDS011;6521;50.498;8.474;2023-07-20T04:07:47;5.93;;;4.57;;
12906;SDS011;6521;50.498;8.474;2023-07-20T04:10:18;7.82;;;4.68;;
12906;SDS011;6521;50.498;8.474;2023-07-20T04:12:49;5.68;;;4.85;;
12906;SDS011;6521;50.498;8.474;2023-07-20T04:15:19;6.35;;;4.28;;
12906;SDS011;6521;50.498;8.474;2023-07-20T04:17:50;5.72;;;3.80;;
12906;SDS011;6521;50.498;8.474;2023-07-20T04:20:21;5.78;;;4.00;;
12906;SDS011;6521;50.498;8.474;2023-07-20T04:22:52;5.72;;;4.32;;
12906;SDS011;6521;50.498;8.474;2023-07-20T04:25:24;4.88;;;4.03;;
12906;SDS011;6521;50.498;8.474;2023-07-20T04:27:55;5.00;;;4.25;;
12906;SDS011;6521;50.498;8.474;2023-07-20T04:30:26;8.93;;;4.07;;
12906;SDS011;6521;50.498;8.474;2023-07-20T04:32:57;7.35;;;3.65;;
12906;SDS011;6521;50.498;8.474;2023-07-20T04:38:24;6.00;;;3.75;;
12906;SDS011;6521;50.498;8.474;2023-07-20T04:41:03;5.55;;;3.83;;
12906;SDS011;6521;50.498;8.474;2023-07-20T04:43:40;8.60;;;3.92;;
12906;SDS011;6521;50.498;8.474;2023-07-20T04:46:12;6.40;;;3.85;;
12906;SDS011;6521;50.498;8.474;2023-07-20T04:48:44;10.52;;;4.40;;
12906;SDS011;6521;50.498;8.474;2023-07-20T04:51:14;6.13;;;3.75;;
12906;SDS011;6521;50.498;8.474;2023-07-20T04:53:47;7.10;;;3.17;;
12906;SDS011;6521;50.498;8.474;2023-07-20T04:56:18;5.55;;;4.00;;
12906;SDS011;6521;50.498;8.474;2023-07-20T04:58:50;11.00;;;4.13;;
12906;SDS011;6521;50.498;8.474;2023-07-20T05:01:21;6.07;;;3.67;;
12906;SDS011;6521;50.498;8.474;2023-07-20T05:03:52;5.97;;;3.88;;
12906;SDS011;6521;50.498;8.474;2023-07-20T05:06:23;5.38;;;3.08;;
12906;SDS011;6521;50.498;8.474;2023-07-20T05:08:54;5.68;;;3.35;;
12906;SDS011;6521;50.498;8.474;2023-07-20T05:11:27;15.25;;;4.13;;
12906;SDS011;6521;50.498;8.474;2023-07-20T05:13:58;8.43;;;3.33;;
12906;SDS011;6521;50.498;8.474;2023-07-20T05:16:29;5.97;;;3.45;;
12906;SDS011;6521;50.498;8.474;2023-07-20T05:19:05;7.30;;;3.58;;
12906;SDS011;6521;50.498;8.474;2023-07-20T05:21:36;8.07;;;4.13;;
12906;SDS011;6521;50.498;8.474;2023-07-20T05:24:07;6.13;;;3.88;;
12906;SDS011;6521;50.498;8.474;2023-07-20T05:26:38;7.68;;;4.15;;
12906;SDS011;6521;50.498;8.474;2023-07-20T05:29:09;4.75;;;3.88;;
12906;SDS011;6521;50.498;8.474;2023-07-20T05:31:40;5.50;;;3.85;;
12906;SDS011;6521;50.498;8.474;2023-07-20T05:34:10;7.32;;;3.47;;
12906;SDS011;6521;50.498;8.474;2023-07-20T05:36:41;8.93;;;4.10;;
12906;SDS011;6521;50.498;8.474;2023-07-20T05:39:12;4.72;;;3.70;;
12906;SDS011;6521;50.498;8.474;2023-07-20T05:41:42;5.20;;;3.58;;
12906;SDS011;6521;50.498;8.474;2023-07-20T05:44:13;11.10;;;3.80;;
12906;SDS011;6521;50.498;8.474;2023-07-20T05:46:44;8.75;;;4.20;;
12906;SDS011;6521;50.498;8.474;2023-07-20T05:49:15;5.95;;;3.92;;
12906;SDS011;6521;50.498;8.474;2023-07-20T05:51:45;6.65;;;3.95;;
12906;SDS011;6521;50.498;8.474;2023-07-20T05:54:17;8.68;;;4.22;;
12906;SDS011;6521;50.498;8.474;2023-07-20T05:56:49;5.72;;;4.15;;
12906;SDS011;6521;50.498;8.474;2023-07-20T05:59:20;5.93;;;4.85;;
12906;SDS011;6521;50.498;8.474;2023-07-20T06:01:51;6.10;;;4.65;;
12906;SDS011;6521;50.498;8.474;2023-07-20T06:04:22;10.63;;;5.18;;
12906;SDS011;6521;50.498;8.474;2023-07-20T06:06:52;6.43;;;4.80;;
12906;SDS011;6521;50.498;8.474;2023-07-20T06:09:23;11.70;;;5.28;;
12906;SDS011;6521;50.498;8.474;2023-07-20T06:11:54;9.57;;;5.03;;
12906;SDS011;6521;50.498;8.474;2023-07-20T06:14:25;8.73;;;5.63;;
12906;SDS011;6521;50.498;8.474;2023-07-20T06:16:55;7.90;;;5.20;;
12906;SDS011;6521;50.498;8.474;2023-07-20T06:19:26;14.55;;;5.30;;
12906;SDS011;6521;50.498;8.474;2023-07-20T06:21:57;6.53;;;4.95;;
12906;SDS011;6521;50.498;8.474;2023-07-20T06:24:28;8.90;;;4.93;;
12906;SDS011;6521;50.498;8.474;2023-07-20T06:26:58;5.35;;;4.82;;
12906;SDS011;6521;50.498;8.474;2023-07-20T06:29:29;7.10;;;4.65;;
12906;SDS011;6521;50.498;8.474;2023-07-20T06:32:00;7.60;;;5.63;;
12906;SDS011;6521;50.498;8.474;2023-07-20T06:34:30;11.73;;;5.72;;
12906;SDS011;6521;50.498;8.474;2023-07-20T06:37:01;8.15;;;4.93;;
12906;SDS011;6521;50.498;8.474;2023-07-20T06:39:33;8.40;;;4.90;;
12906;SDS011;6521;50.498;8.474;2023-07-20T06:42:04;6.53;;;4.60;;
12906;SDS011;6521;50.498;8.474;2023-07-20T06:44:35;5.80;;;4.18;;
12906;SDS011;6521;50.498;8.474;2023-07-20T06:47:06;10.43;;;4.80;;
12906;SDS011;6521;50.498;8.474;2023-07-20T06:49:38;6.38;;;4.85;;
12906;SDS011;6521;50.498;8.474;2023-07-20T06:52:08;7.95;;;4.60;;
12906;SDS011;6521;50.498;8.474;2023-07-20T06:54:39;5.90;;;4.60;;
12906;SDS011;6521;50.498;8.474;2023-07-20T06:57:10;8.50;;;4.18;;
12906;SDS011;6521;50.498;8.474;2023-07-20T06:59:41;8.25;;;4.75;;
12906;SDS011;6521;50.498;8.474;2023-07-20T07:02:11;5.10;;;4.60;;
12906;SDS011;6521;50.498;8.474;2023-07-20T07:04:42;7.93;;;4.43;;
12906;SDS011;6521;50.498;8.474;2023-07-20T07:07:13;6.43;;;4.50;;
12906;SDS011;6521;50.498;8.474;2023-07-20T07:09:45;7.32;;;4.68;;
12906;SDS011;6521;50.498;8.474;2023-07-20T07:12:15;7.80;;;4.85;;
12906;SDS011;6521;50.498;8.474;2023-07-20T07:14:46;6.00;;;4.50;;
12906;SDS011;6521;50.498;8.474;2023-07-20T07:17:17;4.80;;;3.72;;
12906;SDS011;6521;50.498;8.474;2023-07-20T07:19:48;7.10;;;5.30;;
12906;SDS011;6521;50.498;8.474;2023-07-20T07:22:19;16.52;;;5.25;;
12906;SDS011;6521;50.498;8.474;2023-07-20T07:24:49;8.90;;;4.82;;
12906;SDS011;6521;50.498;8.474;2023-07-20T07:27:20;7.43;;;4.53;;
12906;SDS011;6521;50.498;8.474;2023-07-20T07:29:51;6.82;;;4.85;;
12906;SDS011;6521;50.498;8.474;2023-07-20T07:32:21;6.63;;;4.60;;
12906;SDS011;6521;50.498;8.474;2023-07-20T07:34:52;9.35;;;4.82;;
12906;SDS011;6521;50.498;8.474;2023-07-20T07:37:24;6.13;;;4.30;;
12906;SDS011;6521;50.498;8.474;2023-07-20T07:39:54;6.60;;;4.47;;
12906;SDS011;6521;50.498;8.474;2023-07-20T07:42:26;8.98;;;5.13;;
12906;SDS011;6521;50.498;8.474;2023-07-20T07:44:57;7.35;;;5.10;;
12906;SDS011;6521;50.498;8.474;2023-07-20T07:47:28;6.10;;;5.20;;
12906;SDS011;6521;50.498;8.474;2023-07-20T07:49:58;10.85;;;5.15;;
12906;SDS011;6521;50.498;8.474;2023-07-20T07:52:30;8.90;;;5.00;;
12906;SDS011;6521;50.498;8.474;2023-07-20T07:55:00;6.40;;;5.50;;
12906;SDS011;6521;50.498;8.474;2023-07-20T07:57:31;6.55;;;5.25;;
12906;SDS011;6521;50.498;8.474;2023-07-20T08:00:02;8.55;;;5.45;;
12906;SDS011;6521;50.498;8.474;2023-07-20T08:02:35;9.45;;;5.18;;
12906;SDS011;6521;50.498;8.474;2023-07-20T08:05:06;6.18;;;4.43;;
12906;SDS011;6521;50.498;8.474;2023-07-20T08:07:37;7.05;;;4.45;;
12906;SDS011;6521;50.498;8.474;2023-07-20T08:10:08;9.25;;;4.97;;
12906;SDS011;6521;50.498;8.474;2023-07-20T08:12:39;9.68;;;5.20;;
12906;SDS011;6521;50.498;8.474;2023-07-20T08:15:11;8.18;;;4.40;;
12906;SDS011;6521;50.498;8.474;2023-07-20T08:17:42;7.47;;;5.35;;
12906;SDS011;6521;50.498;8.474;2023-07-20T08:20:14;8.55;;;5.40;;
12906;SDS011;6521;50.498;8.474;2023-07-20T08:22:46;9.23;;;5.88;;
12906;SDS011;6521;50.498;8.474;2023-07-20T08:25:17;8.52;;;5.57;;
12906;SDS011;6521;50.498;8.474;2023-07-20T08:27:48;7.00;;;6.30;;
12906;SDS011;6521;50.498;8.474;2023-07-20T08:30:21;7.63;;;6.05;;
12906;SDS011;6521;50.498;8.474;2023-07-20T08:32:53;7.68;;;6.25;;
12906;SDS011;6521;50.498;8.474;2023-07-20T08:35:24;5.75;;;4.55;;
12906;SDS011;6521;50.498;8.474;2023-07-20T08:37:55;9.93;;;4.80;;
12906;SDS011;6521;50.498;8.474;2023-07-20T08:40:26;5.50;;;4.40;;
12906;SDS011;6521;50.498;8.474;2023-07-20T08:42:57;8.85;;;4.70;;
12906;SDS011;6521;50.498;8.474;2023-07-20T08:45:29;9.60;;;5.18;;
12906;SDS011;6521;50.498;8.474;2023-07-20T08:48:05;8.38;;;5.43;;
12906;SDS011;6521;50.498;8.474;2023-07-20T08:50:37;7.00;;;4.45;;
12906;SDS011;6521;50.498;8.474;2023-07-20T08:53:09;8.32;;;4.43;;
12906;SDS011;6521;50.498;8.474;2023-07-20T08:55:41;8.50;;;4.20;;
12906;SDS011;6521;50.498;8.474;2023-07-20T08:58:14;5.38;;;4.05;;
12906;SDS011;6521;50.498;8.474;2023-07-20T09:00:46;8.23;;;3.90;;
12906;SDS011;6521;50.498;8.474;2023-07-20T09:03:20;6.63;;;4.00;;
12906;SDS011;6521;50.498;8.474;2023-07-20T09:05:51;4.03;;;3.60;;
12906;SDS011;6521;50.498;8.474;2023-07-20T09:08:22;3.55;;;3.22;;
12906;SDS011;6521;50.498;8.474;2023-07-20T09:10:53;3.70;;;3.25;;
12906;SDS011;6521;50.498;8.474;2023-07-20T09:13:24;6.97;;;3.30;;
12906;SDS011;6521;50.498;8.474;2023-07-20T09:15:56;4.35;;;3.33;;
12906;SDS011;6521;50.498;8.474;2023-07-20T09:18:29;4.60;;;3.20;;
12906;SDS011;6521;50.498;8.474;2023-07-20T09:21:02;4.60;;;3.63;;
12906;SDS011;6521;50.498;8.474;2023-07-20T09:23:34;4.07;;;2.83;;
12906;SDS011;6521;50.498;8.474;2023-07-20T09:26:09;4.40;;;2.95;;
12906;SDS011;6521;50.498;8.474;2023-07-20T09:28:43;4.47;;;3.53;;
12906;SDS011;6521;50.498;8.474;2023-07-20T09:31:23;8.85;;;3.58;;
12906;SDS011;6521;50.498;8.474;2023-07-20T09:33:54;8.65;;;2.97;;
12906;SDS011;6521;50.498;8.474;2023-07-20T09:36:28;5.18;;;3.15;;
12906;SDS011;6521;50.498;8.474;2023-07-20T09:38:59;8.13;;;3.25;;
12906;SDS011;6521;50.498;8.474;2023-07-20T09:41:39;6.22;;;3.40;;
12906;SDS011;6521;50.498;8.474;2023-07-20T09:44:13;5.35;;;2.78;;
12906;SDS011;6521;50.498;8.474;2023-07-20T09:46:45;3.67;;;2.90;;
12906;SDS011;6521;50.498;8.474;2023-07-20T09:49:19;6.88;;;2.65;;
12906;SDS011;6521;50.498;8.474;2023-07-20T09:51:50;6.63;;;3.03;;
12906;SDS011;6521;50.498;8.474;2023-07-20T09:54:23;4.95;;;3.08;;
12906;SDS011;6521;50.498;8.474;2023-07-20T09:56:55;3.33;;;2.75;;
12906;SDS011;6521;50.498;8.474;2023-07-20T09:59:27;4.68;;;3.05;;
12906;SDS011;6521;50.498;8.474;2023-07-20T10:01:58;3.78;;;3.13;;
12906;SDS011;6521;50.498;8.474;2023-07-20T10:04:29;6.07;;;2.75;;
12906;SDS011;6521;50.498;8.474;2023-07-20T10:07:00;5.50;;;2.72;;
12906;SDS011;6521;50.498;8.474;2023-07-20T10:09:38;4.30;;;2.90;;
12906;SDS011;6521;50.498;8.474;2023-07-20T10:12:10;3.15;;;2.53;;
12906;SDS011;6521;50.498;8.474;2023-07-20T10:14:43;4.43;;;2.70;;
12906;SDS011;6521;50.498;8.474;2023-07-20T10:17:20;5.10;;;3.20;;
12906;SDS011;6521;50.498;8.474;2023-07-20T10:19:54;4.43;;;3.00;;
12906;SDS011;6521;50.498;8.474;2023-07-20T10:22:27;2.95;;;2.63;;
12906;SDS011;6521;50.498;8.474;2023-07-20T10:25:05;5.47;;;3.05;;
12906;SDS011;6521;50.498;8.474;2023-07-20T10:27:37;4.60;;;3.33;;
12906;SDS011;6521;50.498;8.474;2023-07-20T10:30:09;4.45;;;3.40;;
12906;SDS011;6521;50.498;8.474;2023-07-20T10:32:40;5.25;;;2.63;;
12906;SDS011;6521;50.498;8.474;2023-07-20T10:35:13;3.00;;;2.80;;
12906;SDS011;6521;50.498;8.474;2023-07-20T10:37:49;4.07;;;2.80;;
12906;SDS011;6521;50.498;8.474;2023-07-20T10:43:05;3.25;;;2.95;;
12906;SDS011;6521;50.498;8.474;2023-07-20T10:45:41;8.05;;;3.03;;
12906;SDS011;6521;50.498;8.474;2023-07-20T10:53:50;5.43;;;3.33;;
12906;SDS011;6521;50.498;8.474;2023-07-20T10:56:21;2.90;;;2.60;;
12906;SDS011;6521;50.498;8.474;2023-07-20T10:58:57;7.80;;;2.95;;
12906;SDS011;6521;50.498;8.474;2023-07-20T11:01:30;3.72;;;3.08;;
12906;SDS011;6521;50.498;8.474;2023-07-20T11:04:02;5.30;;;2.85;;
12906;SDS011;6521;50.498;8.474;2023-07-20T11:06:42;6.15;;;2.90;;
12906;SDS011;6521;50.498;8.474;2023-07-20T11:09:14;3.13;;;2.83;;
12906;SDS011;6521;50.498;8.474;2023-07-20T11:11:48;3.05;;;2.80;;
12906;SDS011;6521;50.498;8.474;2023-07-20T11:14:23;3.28;;;2.35;;
12906;SDS011;6521;50.498;8.474;2023-07-20T11:16:55;5.13;;;2.90;;
12906;SDS011;6521;50.498;8.474;2023-07-20T11:19:26;4.13;;;2.38;;
12906;SDS011;6521;50.498;8.474;2023-07-20T11:21:57;6.47;;;2.65;;
12906;SDS011;6521;50.498;8.474;2023-07-20T11:24:29;3.75;;;2.60;;
12906;SDS011;6521;50.498;8.474;2023-07-20T11:27:00;3.58;;;2.03;;
12906;SDS011;6521;50.498;8.474;2023-07-20T11:29:31;5.13;;;2.58;;
12906;SDS011;6521;50.498;8.474;2023-07-20T11:32:02;7.93;;;2.75;;
12906;SDS011;6521;50.498;8.474;2023-07-20T11:34:34;14.55;;;3.08;;
12906;SDS011;6521;50.498;8.474;2023-07-20T11:37:05;4.75;;;2.72;;
12906;SDS011;6521;50.498;8.474;2023-07-20T11:39:36;2.67;;;2.38;;
12906;SDS011;6521;50.498;8.474;2023-07-20T11:42:08;3.42;;;2.58;;
12906;SDS011;6521;50.498;8.474;2023-07-20T11:44:39;15.52;;;3.20;;
12906;SDS011;6521;50.498;8.474;2023-07-20T11:47:10;2.88;;;2.30;;
12906;SDS011;6521;50.498;8.474;2023-07-20T11:49:42;3.17;;;2.38;;
12906;SDS011;6521;50.498;8.474;2023-07-20T11:52:15;3.55;;;2.40;;
12906;SDS011;6521;50.498;8.474;2023-07-20T11:54:46;3.40;;;2.80;;
12906;SDS011;6521;50.498;8.474;2023-07-20T11:57:19;4.93;;;2.67;;
12906;SDS011;6521;50.498;8.474;2023-07-20T11:59:56;3.72;;;2.90;;
12906;SDS011;6521;50.498;8.474;2023-07-20T12:02:29;3.58;;;2.78;;
12906;SDS011;6521;50.498;8.474;2023-07-20T12:05:01;5.72;;;2.97;;
12906;SDS011;6521;50.498;8.474;2023-07-20T12:07:35;3.88;;;2.95;;
12906;SDS011;6521;50.498;8.474;2023-07-20T12:10:07;6.93;;;3.20;;
12906;SDS011;6521;50.498;8.474;2023-07-20T12:12:41;6.50;;;2.53;;
12906;SDS011;6521;50.498;8.474;2023-07-20T12:15:14;8.52;;;2.83;;
12906;SDS011;6521;50.498;8.474;2023-07-20T12:17:45;4.70;;;2.55;;
12906;SDS011;6521;50.498;8.474;2023-07-20T12:23:04;6.15;;;2.50;;
12906;SDS011;6521;50.498;8.474;2023-07-20T12:25:40;4.13;;;2.80;;
12906;SDS011;6521;50.498;8.474;2023-07-20T12:28:13;4.45;;;2.85;;
12906;SDS011;6521;50.498;8.474;2023-07-20T12:30:46;7.93;;;3.00;;
12906;SDS011;6521;50.498;8.474;2023-07-20T12:33:18;3.47;;;2.88;;
12906;SDS011;6521;50.498;8.474;2023-07-20T12:35:49;4.70;;;2.65;;
12906;SDS011;6521;50.498;8.474;2023-07-20T12:38:20;4.22;;;3.00;;
12906;SDS011;6521;50.498;8.474;2023-07-20T12:40:50;6.72;;;2.72;;
12906;SDS011;6521;50.498;8.474;2023-07-20T12:43:21;3.08;;;2.78;;
12906;SDS011;6521;50.498;8.474;2023-07-20T12:45:52;4.05;;;3.13;;
12906;SDS011;6521;50.498;8.474;2023-07-20T12:48:23;5.57;;;3.05;;
12906;SDS011;6521;50.498;8.474;2023-07-20T12:50:53;5.60;;;2.70;;
12906;SDS011;6521;50.498;8.474;2023-07-20T12:53:25;3.08;;;2.80;;
12906;SDS011;6521;50.498;8.474;2023-07-20T12:55:56;3.78;;;2.90;;
12906;SDS011;6521;50.498;8.474;2023-07-20T12:58:26;5.00;;;2.35;;
12906;SDS011;6521;50.498;8.474;2023-07-20T13:00:57;3.28;;;2.97;;
12906;SDS011;6521;50.498;8.474;2023-07-20T13:03:28;2.30;;;2.10;;
12906;SDS011;6521;50.498;8.474;2023-07-20T13:05:59;3.60;;;2.08;;
12906;SDS011;6521;50.498;8.474;2023-07-20T13:08:30;4.07;;;2.10;;
12906;SDS011;6521;50.498;8.474;2023-07-20T13:11:00;4.60;;;2.42;;
12906;SDS011;6521;50.498;8.474;2023-07-20T13:13:31;2.38;;;2.15;;
12906;SDS011;6521;50.498;8.474;2023-07-20T13:16:02;4.22;;;2.08;;
12906;SDS011;6521;50.498;8.474;2023-07-20T13:18:33;2.13;;;1.98;;
12906;SDS011;6521;50.498;8.474;2023-07-20T13:21:03;5.32;;;2.42;;
12906;SDS011;6521;50.498;8.474;2023-07-20T13:23:34;2.58;;;2.30;;
12906;SDS011;6521;50.498;8.474;2023-07-20T13:26:05;5.20;;;2.75;;
12906;SDS011;6521;50.498;8.474;2023-07-20T13:28:35;4.00;;;2.20;;
12906;SDS011;6521;50.498;8.474;2023-07-20T13:31:06;4.05;;;2.60;;
12906;SDS011;6521;50.498;8.474;2023-07-20T13:33:39;2.33;;;2.13;;
12906;SDS011;6521;50.498;8.474;2023-07-20T13:36:10;3.63;;;2.28;;
12906;SDS011;6521;50.498;8.474;2023-07-20T13:38:40;2.78;;;2.40;;
12906;SDS011;6521;50.498;8.474;2023-07-20T13:41:11;4.95;;;2.33;;
12906;SDS011;6521;50.498;8.474;2023-07-20T13:43:42;3.05;;;2.50;;
12906;SDS011;6521;50.498;8.474;2023-07-20T13:46:12;4.40;;;2.67;;
12906;SDS011;6521;50.498;8.474;2023-07-20T13:48:43;3.60;;;2.20;;
12906;SDS011;6521;50.498;8.474;2023-07-20T13:51:14;5.28;;;2.63;;
12906;SDS011;6521;50.498;8.474;2023-07-20T13:53:46;3.75;;;2.22;;
12906;SDS011;6521;50.498;8.474;2023-07-20T13:56:17;5.60;;;1.90;;
12906;SDS011;6521;50.498;8.474;2023-07-20T13:58:48;2.90;;;2.17;;
12906;SDS011;6521;50.498;8.474;2023-07-20T14:01:19;2.95;;;2.10;;
12906;SDS011;6521;50.498;8.474;2023-07-20T14:03:50;2.30;;;2.10;;
12906;SDS011;6521;50.498;8.474;2023-07-20T14:06:21;2.22;;;1.80;;
12906;SDS011;6521;50.498;8.474;2023-07-20T14:08:52;2.53;;;1.95;;
12906;SDS011;6521;50.498;8.474;2023-07-20T14:11:23;3.38;;;1.98;;
12906;SDS011;6521;50.498;8.474;2023-07-20T14:13:54;4.93;;;1.95;;
12906;SDS011;6521;50.498;8.474;2023-07-20T14:16:25;3.25;;;2.10;;
12906;SDS011;6521;50.498;8.474;2023-07-20T14:18:56;2.25;;;2.05;;
12906;SDS011;6521;50.498;8.474;2023-07-20T14:21:26;9.50;;;2.38;;
12906;SDS011;6521;50.498;8.474;2023-07-20T14:23:59;2.53;;;2.05;;
12906;SDS011;6521;50.498;8.474;2023-07-20T14:26:29;1.98;;;1.70;;
12906;SDS011;6521;50.498;8.474;2023-07-20T14:29:00;3.75;;;1.92;;
12906;SDS011;6521;50.498;8.474;2023-07-20T14:31:31;4.70;;;2.10;;
12906;SDS011;6521;50.498;8.474;2023-07-20T14:34:02;3.83;;;2.10;;
12906;SDS011;6521;50.498;8.474;2023-07-20T14:36:33;7.63;;;2.42;;
12906;SDS011;6521;50.498;8.474;2023-07-20T14:39:03;2.63;;;2.03;;
12906;SDS011;6521;50.498;8.474;2023-07-20T14:41:35;3.42;;;1.98;;
12906;SDS011;6521;50.498;8.474;2023-07-20T14:44:06;2.53;;;1.85;;
12906;SDS011;6521;50.498;8.474;2023-07-20T14:46:37;3.90;;;2.00;;
12906;SDS011;6521;50.498;8.474;2023-07-20T14:49:07;1.60;;;1.50;;
12906;SDS011;6521;50.498;8.474;2023-07-20T14:51:38;1.73;;;1.63;;
12906;SDS011;6521;50.498;8.474;2023-07-20T14:54:13;4.72;;;2.03;;
12906;SDS011;6521;50.498;8.474;2023-07-20T14:56:51;2.55;;;1.85;;
12906;SDS011;6521;50.498;8.474;2023-07-20T14:59:23;2.22;;;1.77;;
12906;SDS011;6521;50.498;8.474;2023-07-20T15:01:53;2.65;;;1.92;;
12906;SDS011;6521;50.498;8.474;2023-07-20T15:04:24;2.72;;;2.03;;
12906;SDS011;6521;50.498;8.474;2023-07-20T15:06:55;2.30;;;2.10;;
12906;SDS011;6521;50.498;8.474;2023-07-20T15:09:26;5.03;;;2.08;;
12906;SDS011;6521;50.498;8.474;2023-07-20T15:11:57;9.27;;;2.00;;
12906;SDS011;6521;50.498;8.474;2023-07-20T15:14:28;4.85;;;2.03;;
12906;SDS011;6521;50.498;8.474;2023-07-20T15:16:58;4.45;;;1.70;;
12906;SDS011;6521;50.498;8.474;2023-07-20T15:19:29;3.25;;;1.80;;
12906;SDS011;6521;50.498;8.474;2023-07-20T15:22:00;2.53;;;1.95;;
12906;SDS011;6521;50.498;8.474;2023-07-20T15:24:31;2.50;;;1.80;;
12906;SDS011;6521;50.498;8.474;2023-07-20T15:27:03;5.55;;;1.92;;
12906;SDS011;6521;50.498;8.474;2023-07-20T15:29:34;3.78;;;2.05;;
12906;SDS011;6521;50.498;8.474;2023-07-20T15:32:06;2.63;;;1.83;;
12906;SDS011;6521;50.498;8.474;2023-07-20T15:34:38;3.95;;;2.08;;
12906;SDS011;6521;50.498;8.474;2023-07-20T15:37:09;2.67;;;1.73;;
12906;SDS011;6521;50.498;8.474;2023-07-20T15:39:40;2.85;;;1.80;;
12906;SDS011;6521;50.498;8.474;2023-07-20T15:42:12;3.78;;;1.60;;
12906;SDS011;6521;50.498;8.474;2023-07-20T15:44:42;1.92;;;1.70;;
12906;SDS011;6521;50.498;8.474;2023-07-20T15:47:13;2.75;;;1.70;;
12906;SDS011;6521;50.498;8.474;2023-07-20T15:49:44;1.77;;;1.67;;